createdAt,value
2017-07-05T00:01:55.549Z,6.65
2017-07-05T00:04:23.650Z,6.20
2017-07-05T00:06:51.806Z,6.28
2017-07-05T00:09:19.908Z,6.55
2017-07-05T00:11:48.058Z,6.30
2017-07-05T00:14:17.294Z,6.97
2017-07-05T00:16:46.157Z,6.30
2017-07-05T00:19:14.294Z,6.65
2017-07-05T00:21:42.388Z,6.32
2017-07-05T00:24:10.620Z,7.78
2017-07-05T00:26:38.712Z,7.40
2017-07-05T00:29:07.612Z,7.10
2017-07-05T00:31:35.714Z,7.30
2017-07-05T00:34:03.832Z,6.87
2017-07-05T00:36:31.940Z,7.55
2017-07-05T00:39:00.957Z,7.93
2017-07-05T00:41:30.297Z,7.40
2017-07-05T00:43:58.400Z,7.20
2017-07-05T00:46:26.497Z,6.85
2017-07-05T00:48:55.393Z,7.70
2017-07-05T00:51:23.521Z,7.50
2017-07-05T00:53:51.614Z,7.10
2017-07-05T00:56:19.873Z,7.50
2017-07-05T00:58:47.953Z,7.87
2017-07-05T01:01:16.081Z,7.65
2017-07-05T01:03:44.937Z,7.50
2017-07-05T01:06:13.029Z,7.10
2017-07-05T01:08:41.156Z,7.20
2017-07-05T01:11:09.391Z,8.25
2017-07-05T01:13:37.484Z,7.82
2017-07-05T01:16:06.376Z,7.22
2017-07-05T01:18:34.476Z,7.72
2017-07-05T01:21:02.620Z,8.10
2017-07-05T01:23:31.488Z,7.45
2017-07-05T01:25:59.597Z,6.53
2017-07-05T01:28:28.464Z,7.05
2017-07-05T01:30:56.593Z,6.80
2017-07-05T01:33:24.713Z,6.82
2017-07-05T01:35:52.814Z,7.47
2017-07-05T01:38:21.793Z,6.70
2017-07-05T01:40:49.918Z,7.05
2017-07-05T01:43:18.014Z,7.47
2017-07-05T01:45:46.150Z,6.78
2017-07-05T01:48:15.000Z,7.47
2017-07-05T01:50:43.109Z,6.97
2017-07-05T01:53:11.356Z,7.10
2017-07-05T01:55:39.449Z,6.53
2017-07-05T01:58:07.553Z,6.50
2017-07-05T02:00:35.792Z,7.55
2017-07-05T02:03:03.901Z,7.25
2017-07-05T02:05:33.231Z,7.18
2017-07-05T02:08:01.372Z,6.95
2017-07-05T02:10:29.465Z,7.12
2017-07-05T02:12:58.326Z,7.45
2017-07-05T02:15:26.549Z,7.60
2017-07-05T02:17:55.416Z,7.50
2017-07-05T02:20:23.549Z,7.65
2017-07-05T02:22:51.643Z,8.10
2017-07-05T02:25:19.733Z,8.10
2017-07-05T02:27:47.954Z,8.05
2017-07-05T02:30:16.810Z,8.52
2017-07-05T02:32:44.964Z,8.23
2017-07-05T02:35:13.056Z,7.72
2017-07-05T02:37:41.156Z,8.52
2017-07-05T02:40:09.288Z,8.10
2017-07-05T02:42:37.383Z,7.90
2017-07-05T02:45:05.484Z,8.48
2017-07-05T02:47:33.601Z,8.57
2017-07-05T02:50:01.833Z,9.70
2017-07-05T02:52:29.925Z,8.65
2017-07-05T02:54:58.017Z,9.07
2017-07-05T02:57:26.909Z,8.25
2017-07-05T02:59:55.006Z,7.85
2017-07-05T03:02:23.096Z,8.23
2017-07-05T03:04:51.357Z,8.20
2017-07-05T03:07:19.452Z,9.10
2017-07-05T03:09:47.577Z,8.60
2017-07-05T03:12:15.672Z,8.20
2017-07-05T03:14:44.538Z,8.00
2017-07-05T03:17:12.722Z,8.40
2017-07-05T03:19:40.860Z,8.25
2017-07-05T03:22:08.946Z,8.50
2017-07-05T03:24:37.160Z,8.60
2017-07-05T03:27:05.249Z,7.85
2017-07-05T03:29:34.148Z,8.50
2017-07-05T03:32:03.005Z,9.43
2017-07-05T03:34:31.102Z,8.88
2017-07-05T03:36:59.209Z,8.68
2017-07-05T03:39:28.079Z,9.13
2017-07-05T03:41:56.330Z,9.15
2017-07-05T03:44:24.428Z,9.55
2017-07-05T03:46:52.525Z,8.63
2017-07-05T03:49:21.418Z,8.18
2017-07-05T03:51:50.269Z,8.90
2017-07-05T03:54:18.405Z,9.05
2017-07-05T03:56:46.498Z,8.80
2017-07-05T03:59:14.598Z,8.13
2017-07-05T04:01:42.846Z,8.63
2017-07-05T04:04:10.934Z,9.68
2017-07-05T04:06:39.093Z,9.88
2017-07-05T04:09:07.193Z,9.98
2017-07-05T04:11:35.285Z,9.35
2017-07-05T04:14:03.408Z,10.75
2017-07-05T04:16:32.269Z,9.35
2017-07-05T04:19:00.525Z,10.05
2017-07-05T04:21:28.627Z,10.05
2017-07-05T04:23:56.774Z,10.85
2017-07-05T04:26:24.876Z,9.40
2017-07-05T04:28:52.978Z,9.05
2017-07-05T04:31:21.124Z,11.05
2017-07-05T04:33:49.232Z,9.68
2017-07-05T04:36:17.332Z,9.75
2017-07-05T04:38:45.572Z,13.68
2017-07-05T04:41:13.662Z,10.90
2017-07-05T04:43:41.925Z,10.93
2017-07-05T04:46:10.026Z,9.85
2017-07-05T04:48:38.890Z,10.70
2017-07-05T04:51:07.009Z,11.45
2017-07-05T04:53:35.868Z,10.70
2017-07-05T04:56:04.015Z,10.30
2017-07-05T04:58:32.115Z,10.95
2017-07-05T05:01:00.220Z,11.63
2017-07-05T05:03:28.385Z,11.35
2017-07-05T05:05:56.509Z,11.55
2017-07-05T05:08:24.613Z,11.00
2017-07-05T05:10:52.852Z,11.25
2017-07-05T05:13:21.725Z,11.60
2017-07-05T05:15:49.854Z,11.23
2017-07-05T05:18:17.980Z,10.85
2017-07-05T05:20:46.879Z,10.73
2017-07-05T05:23:15.001Z,10.20
2017-07-05T05:25:43.107Z,11.35
2017-07-05T05:28:11.352Z,10.68
2017-07-05T05:30:39.484Z,11.50
2017-07-05T05:33:08.384Z,11.23
2017-07-05T05:35:36.452Z,10.05
2017-07-05T05:38:04.589Z,10.30
2017-07-05T05:40:32.685Z,10.52
2017-07-05T05:43:00.920Z,10.65
2017-07-05T05:45:30.274Z,10.10
2017-07-05T05:47:59.151Z,11.02
2017-07-05T05:50:27.305Z,9.30
2017-07-05T05:52:55.418Z,10.63
2017-07-05T05:55:23.542Z,9.88
2017-07-05T05:57:51.651Z,10.30
2017-07-05T06:00:19.897Z,9.75
2017-07-05T06:02:48.038Z,10.48
2017-07-05T06:05:16.157Z,10.20
2017-07-05T06:07:44.302Z,11.55
2017-07-05T06:10:12.412Z,9.85
2017-07-05T06:12:40.520Z,10.25
2017-07-05T06:15:08.661Z,10.60
2017-07-05T06:17:36.772Z,12.25
2017-07-05T06:20:04.877Z,15.57
2017-07-05T06:22:33.148Z,10.23
2017-07-05T06:25:01.245Z,9.02
2017-07-05T06:27:29.362Z,9.68
2017-07-05T06:29:57.483Z,8.50
2017-07-05T06:32:25.595Z,8.55
2017-07-05T06:34:53.832Z,9.43
2017-07-05T06:37:21.932Z,9.00
2017-07-05T06:39:50.033Z,8.70
2017-07-05T06:42:18.918Z,9.07
2017-07-05T06:44:47.813Z,8.50
2017-07-05T06:47:15.927Z,8.10
2017-07-05T06:49:44.048Z,8.90
2017-07-05T06:52:12.285Z,8.40
2017-07-05T06:54:40.413Z,8.50
2017-07-05T06:57:08.550Z,7.97
2017-07-05T06:59:36.653Z,9.03
2017-07-05T07:02:04.794Z,8.13
2017-07-05T07:04:32.894Z,8.23
2017-07-05T07:07:00.983Z,9.03
2017-07-05T07:09:29.233Z,8.27
2017-07-05T07:11:57.332Z,7.77
2017-07-05T07:14:25.464Z,8.20
2017-07-05T07:16:53.565Z,7.63
2017-07-05T07:19:21.735Z,7.50
2017-07-05T07:21:49.824Z,7.20
2017-07-05T07:24:17.925Z,6.70
2017-07-05T07:26:46.046Z,6.33
2017-07-05T07:29:14.134Z,6.03
2017-07-05T07:31:42.273Z,5.80
2017-07-05T07:34:10.372Z,5.30
2017-07-05T07:36:38.474Z,5.87
2017-07-05T07:39:06.704Z,5.83
2017-07-05T07:41:34.791Z,5.33
2017-07-05T07:44:03.671Z,5.30
2017-07-05T07:46:31.762Z,5.30
2017-07-05T07:49:00.636Z,5.13
2017-07-05T07:51:28.754Z,5.17
2017-07-05T07:53:56.853Z,5.20
2017-07-05T07:56:25.096Z,5.00
2017-07-05T07:58:53.197Z,5.00
2017-07-05T08:01:21.304Z,4.40
2017-07-05T08:03:50.633Z,4.63
2017-07-05T08:06:18.733Z,4.97
2017-07-05T08:08:47.609Z,5.13
2017-07-05T08:11:15.843Z,5.03
2017-07-05T08:13:43.931Z,4.90
2017-07-05T08:16:12.056Z,4.50
2017-07-05T08:18:40.151Z,4.50
2017-07-05T08:21:08.246Z,4.43
2017-07-05T08:23:36.381Z,4.17
2017-07-05T08:26:04.472Z,4.40
2017-07-05T08:28:33.500Z,4.70
2017-07-05T08:31:01.582Z,3.80
2017-07-05T08:33:29.695Z,4.33
2017-07-05T08:35:57.825Z,4.20
2017-07-05T08:38:25.941Z,3.50
2017-07-05T08:40:54.024Z,4.00
2017-07-05T08:43:22.161Z,4.10
2017-07-05T08:45:50.253Z,4.00
2017-07-05T08:48:18.360Z,3.63
2017-07-05T08:50:46.587Z,3.70
2017-07-05T08:53:14.765Z,3.97
2017-07-05T08:55:42.892Z,3.80
2017-07-05T08:58:10.991Z,3.70
2017-07-05T09:00:39.133Z,3.90
2017-07-05T09:03:07.362Z,3.77
2017-07-05T09:05:35.458Z,3.77
2017-07-05T09:08:03.585Z,3.90
2017-07-05T09:10:31.697Z,4.10
2017-07-05T09:12:59.797Z,4.10
2017-07-05T09:15:27.925Z,4.13
2017-07-05T09:17:56.026Z,3.97
2017-07-05T09:20:24.121Z,3.83
2017-07-05T09:22:52.352Z,3.80
2017-07-05T09:25:20.445Z,3.83
2017-07-05T09:27:49.346Z,4.00
2017-07-05T09:30:18.198Z,3.63
2017-07-05T09:32:46.294Z,3.77
2017-07-05T09:35:14.418Z,3.63
2017-07-05T09:37:42.514Z,4.37
2017-07-05T09:40:10.744Z,4.00
2017-07-05T09:42:39.606Z,3.63
2017-07-05T09:45:07.744Z,3.70
2017-07-05T09:47:35.837Z,3.53
2017-07-05T09:50:03.913Z,4.07
2017-07-05T09:52:32.029Z,4.33
2017-07-05T09:55:00.277Z,3.97
2017-07-05T09:57:28.360Z,3.90
2017-07-05T09:59:57.598Z,3.80
2017-07-05T10:02:25.716Z,4.30
2017-07-05T10:04:53.812Z,3.90
2017-07-05T10:07:21.936Z,4.13
2017-07-05T10:09:50.797Z,3.63
2017-07-05T10:12:18.886Z,4.13
